This is the latest recevied weather packets stored in our database for station/object SP4MAZ-13. If no packets are shown the sender has not sent any weather packets the latest 10 day(s).
| Time | Temp. | Humidity | Pressure | Rain* | Wind** | Luminosity | Snow |
|---|---|---|---|---|---|---|---|
| 1777475365 | 9.44° C | 40% | 2147.4 hPa | - | - | - | - |
| 1777474455 | 7.22° C | 49% | 2147.4 hPa | - | - | - | - |
| 1777473544 | 7.22° C | 46% | 2147.4 hPa | - | - | - | - |
| 1777473245 | 7.78° C | 44% | 2147.4 hPa | - | - | - | - |
| 1777472938 | 7.78° C | 49% | 2147.4 hPa | - | - | - | - |
| 1777472333 | 7.78° C | 45% | 2147.4 hPa | - | - | - | - |
| 1777472029 | 7.22° C | 46% | 2147.4 hPa | - | - | - | - |
| 1777471725 | 6.67° C | 54% | 2147.4 hPa | - | - | - | - |
| 1777471422 | 7.22° C | 51% | 2147.4 hPa | - | - | - | - |
| 1777471119 | 7.22° C | 52% | 2147.4 hPa | - | - | - | - |
| 1777469905 | 6.67° C | 53% | 2147.4 hPa | - | - | - | - |
| 1777469298 | 6.67° C | 54% | 2147.4 hPa | - | - | - | - |
| 1777468995 | 6.67° C | 52% | 2147.4 hPa | - | - | - | - |
| 1777468691 | 6.67° C | 53% | 2147.4 hPa | - | - | - | - |
| 1777468388 | 6.67° C | 52% | 2147.4 hPa | - | - | - | - |
| 1777468084 | 7.22° C | 51% | 2147.4 hPa | - | - | - | - |
| 1777467478 | 6.67° C | 49% | 2147.4 hPa | - | - | - | - |
| 1777467174 | 6.67° C | 53% | 2147.4 hPa | - | - | - | - |
| 1777466267 | 7.22° C | 50% | 2147.4 hPa | - | - | - | - |
| 1777465963 | 6.67° C | 51% | 2147.4 hPa | - | - | - | - |
| 1777465659 | 6.67° C | 53% | 2147.4 hPa | - | - | - | - |
| 1777465046 | 6.11° C | 53% | 2147.4 hPa | - | - | - | - |
| 1777464742 | 6.11° C | 57% | 2147.4 hPa | - | - | - | - |
| 1777464439 | 6.11° C | 54% | 2147.4 hPa | - | - | - | - |
| 1777463226 | 6.11° C | 59% | 2147.4 hPa | - | - | - | - |
* Rain since midnight (hover to see other rain measurements)
** Current wind speed in m/s (hover to see current wind gust speed)